This is the latest recevied weather packets stored in our database for station/object K5EAA-13. If no packets are shown the sender has not sent any weather packets the latest 10 day(s).
| Time | Temp. | Humidity | Pressure | Rain* | Wind** | Luminosity | Snow |
|---|---|---|---|---|---|---|---|
| 1787928141 | 31.67° C | 58% | 1018.3 hPa | 0 mm | - | 156 W/m² | - |
| 1787927840 | 31.11° C | 60% | 1018.2 hPa | 0 mm | - | 110 W/m² | - |
| 1787927535 | 30.56° C | 61% | 1018.2 hPa | 0 mm | - | 294 W/m² | - |
| 1787927230 | 30.56° C | 61% | 1017.9 hPa | 0 mm | - | 291 W/m² | - |
| 1787926925 | 30° C | 63% | 1018 hPa | 0 mm | - | 113 W/m² | - |
| 1787926620 | 30° C | 63% | 1017.9 hPa | 0 mm | - | 100 W/m² | - |
| 1787926318 | 30° C | 63% | 1018 hPa | 0 mm | - | 262 W/m² | - |
| 1787926014 | 30° C | 63% | 1017.9 hPa | 0 mm | - | 250 W/m² | - |
| 1787925713 | 29.44° C | 64% | 1018 hPa | 0 mm | - | 236 W/m² | - |
| 1787925408 | 29.44° C | 65% | 1017.9 hPa | 0 mm | - | 221 W/m² | - |
| 1787925107 | 28.89° C | 65% | 1017.9 hPa | 0 mm | - | 209 W/m² | - |
| 1787924806 | 28.89° C | 67% | 1017.9 hPa | 0 mm | - | 193 W/m² | - |
| 1787924501 | 28.33° C | 68% | 1017.9 hPa | 0 mm | - | 178 W/m² | - |
| 1787924197 | 27.78° C | 71% | 1018 hPa | 0 mm | - | 165 W/m² | - |
| 1787923892 | 27.78° C | 70% | 1018.2 hPa | 0 mm | - | 152 W/m² | - |
| 1787923591 | 27.78° C | 70% | 1018.2 hPa | 0 mm | - | 137 W/m² | - |
| 1787923288 | 27.22° C | 72% | 1018 hPa | 0 mm | - | 122 W/m² | - |
| 1787922988 | 26.67° C | 73% | 1017.8 hPa | 0 mm | - | 109 W/m² | - |
| 1787922687 | 26.67° C | 73% | 1017.9 hPa | 0 mm | - | 97 W/m² | - |
| 1787922387 | 26.11° C | 74% | 1017.9 hPa | 0 mm | - | 87 W/m² | - |
| 1787922085 | 25.56° C | 75% | 1017.8 hPa | 0 mm | - | 78 W/m² | - |
| 1787921784 | 25.56° C | 76% | 1017.9 hPa | 0 mm | - | 70 W/m² | - |
| 1787921485 | 25° C | 76% | 1017.7 hPa | 0 mm | - | 60 W/m² | - |
| 1787921184 | 25° C | 76% | 1017.5 hPa | 0 mm | - | 53 W/m² | - |
| 1787910490 | 25.56° C | 73% | 1016.5 hPa | 0 mm | - | 0 W/m² | - |
* Rain latest hour (hover to see other rain measurements)
** Current wind speed in m/s (hover to see current wind gust speed)